Kilauea, Hawaii
Current Conditions -  °F | °C
As of 3:37 AM on Monday 22 Dec 2014 (Local Time) from PHLI Reporting Station
Light Rain Light Rain  
Wind Chill: 68°   Ceiling: 2300
Heat Index: 68°   Visibility: 6mi
Dew Point: 63°   Wind: 15mph
Humidity: 83%   Direction: 350°N
Pressure: 30.03"   Gusts: NA
Location:  22.2°N, 159.4°W
Report Text: PHLI 221337Z 35013KT 6SM -RA FEW018 BKN023 OVC028 20/17 A3003 RMK AO2 P0001
Loading
Personal Weather Stations






























Interactive Weather Map New forecast layout! Learn more

10-Day Weather Forecast

Advertisements
Track Severe Weather on mobile